Destinations Stockholm Västerås Airport

Stockholm Västerås Airport (ESOW / VST)

Flights to Stockholm Västerås Airport

Flight number From ETE Dispatch
SPY-2250 EGFF Cardiff International Airport 02:35

Flights from Stockholm Västerås Airport

Flight number To ETE Dispatch
SPY-2251 EGFF Cardiff International Airport 02:35
About

Stockholm Västerås Airport facts

Stockholm Västerås Airport is located in Vasteras at an elevation of 6.4 meters or 21 feet.

Currently, Speedy Airlines serves 2 flights to and from Stockholm Västerås Airport.

Detailed airport info

Route map

Weather

Current weather

METAR

METAR

Metar data retrieved Sunday, 21 July 2024 at 19:55 UTC

ESOW 211920Z AUTO 06005KT 9999 NCD 20/16 Q1012
Wind Temperature
5 kt 20c